sensor_id;sensor_type;location;lat;lon;timestamp;P1;durP1;ratioP1;P2;durP2;ratioP2
37609;SDS011;23457;51.966;8.230;2022-10-16T00:02:21;9.48;;;5.03;;
37609;SDS011;23457;51.966;8.230;2022-10-16T00:04:47;10.15;;;5.53;;
37609;SDS011;23457;51.966;8.230;2022-10-16T00:07:14;9.02;;;5.18;;
37609;SDS011;23457;51.966;8.230;2022-10-16T00:09:41;10.32;;;5.65;;
37609;SDS011;23457;51.966;8.230;2022-10-16T00:12:08;8.50;;;5.30;;
37609;SDS011;23457;51.966;8.230;2022-10-16T00:14:34;10.68;;;5.00;;
37609;SDS011;23457;51.966;8.230;2022-10-16T00:17:01;6.50;;;5.10;;
37609;SDS011;23457;51.966;8.230;2022-10-16T00:19:28;9.50;;;5.47;;
37609;SDS011;23457;51.966;8.230;2022-10-16T00:21:55;10.38;;;5.35;;
37609;SDS011;23457;51.966;8.230;2022-10-16T00:24:22;8.18;;;5.38;;
37609;SDS011;23457;51.966;8.230;2022-10-16T00:26:49;8.02;;;5.30;;
37609;SDS011;23457;51.966;8.230;2022-10-16T00:29:16;10.05;;;5.43;;
37609;SDS011;23457;51.966;8.230;2022-10-16T00:31:43;7.95;;;5.55;;
37609;SDS011;23457;51.966;8.230;2022-10-16T00:34:10;7.35;;;5.25;;
37609;SDS011;23457;51.966;8.230;2022-10-16T00:36:37;8.88;;;4.80;;
37609;SDS011;23457;51.966;8.230;2022-10-16T00:39:03;11.27;;;5.55;;
37609;SDS011;23457;51.966;8.230;2022-10-16T00:41:30;8.70;;;5.07;;
37609;SDS011;23457;51.966;8.230;2022-10-16T00:43:58;8.52;;;5.60;;
37609;SDS011;23457;51.966;8.230;2022-10-16T00:46:28;11.55;;;5.97;;
37609;SDS011;23457;51.966;8.230;2022-10-16T00:51:43;9.68;;;5.72;;
37609;SDS011;23457;51.966;8.230;2022-10-16T00:56:57;10.25;;;5.93;;
37609;SDS011;23457;51.966;8.230;2022-10-16T00:59:30;9.68;;;5.43;;
37609;SDS011;23457;51.966;8.230;2022-10-16T01:01:59;8.00;;;5.05;;
37609;SDS011;23457;51.966;8.230;2022-10-16T01:04:26;10.10;;;5.20;;
37609;SDS011;23457;51.966;8.230;2022-10-16T01:07:12;8.88;;;5.07;;
37609;SDS011;23457;51.966;8.230;2022-10-16T01:13:04;11.02;;;5.30;;
37609;SDS011;23457;51.966;8.230;2022-10-16T01:15:42;8.07;;;5.10;;
37609;SDS011;23457;51.966;8.230;2022-10-16T01:21:02;8.63;;;5.77;;
37609;SDS011;23457;51.966;8.230;2022-10-16T01:23:48;12.02;;;5.35;;
37609;SDS011;23457;51.966;8.230;2022-10-16T01:31:32;11.32;;;5.40;;
37609;SDS011;23457;51.966;8.230;2022-10-16T01:34:13;6.20;;;4.88;;
37609;SDS011;23457;51.966;8.230;2022-10-16T01:37:27;10.95;;;5.32;;
37609;SDS011;23457;51.966;8.230;2022-10-16T01:39:38;8.48;;;5.45;;
37609;SDS011;23457;51.966;8.230;2022-10-16T01:42:13;8.85;;;5.22;;
37609;SDS011;23457;51.966;8.230;2022-10-16T01:44:43;7.70;;;5.43;;
37609;SDS011;23457;51.966;8.230;2022-10-16T01:47:13;8.70;;;5.40;;
37609;SDS011;23457;51.966;8.230;2022-10-16T01:49:41;10.02;;;5.25;;
37609;SDS011;23457;51.966;8.230;2022-10-16T01:52:11;8.43;;;5.30;;
37609;SDS011;23457;51.966;8.230;2022-10-16T01:54:42;11.65;;;5.38;;
37609;SDS011;23457;51.966;8.230;2022-10-16T01:57:12;10.45;;;5.28;;
37609;SDS011;23457;51.966;8.230;2022-10-16T01:59:42;9.90;;;5.05;;
37609;SDS011;23457;51.966;8.230;2022-10-16T02:02:11;7.00;;;5.55;;
37609;SDS011;23457;51.966;8.230;2022-10-16T02:04:44;11.60;;;5.68;;
37609;SDS011;23457;51.966;8.230;2022-10-16T02:07:23;9.25;;;4.97;;
37609;SDS011;23457;51.966;8.230;2022-10-16T02:09:50;11.35;;;5.35;;
37609;SDS011;23457;51.966;8.230;2022-10-16T02:12:25;9.80;;;5.30;;
37609;SDS011;23457;51.966;8.230;2022-10-16T02:14:55;7.75;;;5.30;;
37609;SDS011;23457;51.966;8.230;2022-10-16T02:17:22;9.18;;;5.97;;
37609;SDS011;23457;51.966;8.230;2022-10-16T02:19:49;12.20;;;5.43;;
37609;SDS011;23457;51.966;8.230;2022-10-16T02:22:24;5.97;;;4.55;;
37609;SDS011;23457;51.966;8.230;2022-10-16T02:25:08;7.72;;;5.93;;
37609;SDS011;23457;51.966;8.230;2022-10-16T02:33:09;7.43;;;5.43;;
37609;SDS011;23457;51.966;8.230;2022-10-16T02:35:39;7.60;;;5.07;;
37609;SDS011;23457;51.966;8.230;2022-10-16T02:38:08;7.35;;;5.35;;
37609;SDS011;23457;51.966;8.230;2022-10-16T02:40:36;10.27;;;4.88;;
37609;SDS011;23457;51.966;8.230;2022-10-16T02:43:04;10.88;;;5.55;;
37609;SDS011;23457;51.966;8.230;2022-10-16T02:45:31;8.43;;;5.20;;
37609;SDS011;23457;51.966;8.230;2022-10-16T02:47:58;9.25;;;5.00;;
37609;SDS011;23457;51.966;8.230;2022-10-16T02:50:24;10.43;;;5.82;;
37609;SDS011;23457;51.966;8.230;2022-10-16T02:52:51;6.68;;;5.22;;
37609;SDS011;23457;51.966;8.230;2022-10-16T02:55:18;9.43;;;5.20;;
37609;SDS011;23457;51.966;8.230;2022-10-16T02:57:44;9.88;;;5.00;;
37609;SDS011;23457;51.966;8.230;2022-10-16T03:00:13;8.73;;;5.63;;
37609;SDS011;23457;51.966;8.230;2022-10-16T03:02:42;9.30;;;5.60;;
37609;SDS011;23457;51.966;8.230;2022-10-16T03:05:09;8.95;;;5.07;;
37609;SDS011;23457;51.966;8.230;2022-10-16T03:07:36;9.20;;;5.03;;
37609;SDS011;23457;51.966;8.230;2022-10-16T03:10:03;7.75;;;4.93;;
37609;SDS011;23457;51.966;8.230;2022-10-16T03:12:30;9.85;;;5.68;;
37609;SDS011;23457;51.966;8.230;2022-10-16T03:14:57;10.32;;;5.22;;
37609;SDS011;23457;51.966;8.230;2022-10-16T03:17:24;9.13;;;5.10;;
37609;SDS011;23457;51.966;8.230;2022-10-16T03:19:51;10.35;;;6.38;;
37609;SDS011;23457;51.966;8.230;2022-10-16T03:22:18;12.23;;;5.55;;
37609;SDS011;23457;51.966;8.230;2022-10-16T03:24:44;13.57;;;5.53;;
37609;SDS011;23457;51.966;8.230;2022-10-16T03:27:11;7.80;;;5.35;;
37609;SDS011;23457;51.966;8.230;2022-10-16T03:29:38;8.27;;;5.47;;
37609;SDS011;23457;51.966;8.230;2022-10-16T03:32:04;8.15;;;5.28;;
37609;SDS011;23457;51.966;8.230;2022-10-16T03:34:31;10.25;;;5.07;;
37609;SDS011;23457;51.966;8.230;2022-10-16T03:36:57;7.13;;;4.55;;
37609;SDS011;23457;51.966;8.230;2022-10-16T03:39:24;8.27;;;4.90;;
37609;SDS011;23457;51.966;8.230;2022-10-16T03:41:51;8.75;;;4.72;;
37609;SDS011;23457;51.966;8.230;2022-10-16T03:44:17;8.95;;;5.32;;
37609;SDS011;23457;51.966;8.230;2022-10-16T03:46:44;11.73;;;5.05;;
37609;SDS011;23457;51.966;8.230;2022-10-16T03:49:10;9.07;;;5.72;;
37609;SDS011;23457;51.966;8.230;2022-10-16T03:51:38;7.75;;;4.78;;
37609;SDS011;23457;51.966;8.230;2022-10-16T03:54:04;7.07;;;4.68;;
37609;SDS011;23457;51.966;8.230;2022-10-16T03:56:31;6.88;;;4.30;;
37609;SDS011;23457;51.966;8.230;2022-10-16T03:58:57;8.23;;;4.47;;
37609;SDS011;23457;51.966;8.230;2022-10-16T04:01:24;5.38;;;4.45;;
37609;SDS011;23457;51.966;8.230;2022-10-16T04:03:51;6.22;;;4.53;;
37609;SDS011;23457;51.966;8.230;2022-10-16T04:06:17;5.32;;;4.05;;
37609;SDS011;23457;51.966;8.230;2022-10-16T04:08:44;7.15;;;3.95;;
37609;SDS011;23457;51.966;8.230;2022-10-16T04:11:11;5.40;;;4.00;;
37609;SDS011;23457;51.966;8.230;2022-10-16T04:13:37;7.80;;;4.40;;
37609;SDS011;23457;51.966;8.230;2022-10-16T04:16:04;7.70;;;4.40;;
37609;SDS011;23457;51.966;8.230;2022-10-16T04:18:31;8.18;;;4.45;;
37609;SDS011;23457;51.966;8.230;2022-10-16T04:21:02;5.53;;;3.85;;
37609;SDS011;23457;51.966;8.230;2022-10-16T04:23:32;6.95;;;4.32;;
37609;SDS011;23457;51.966;8.230;2022-10-16T04:26:00;5.45;;;4.22;;
37609;SDS011;23457;51.966;8.230;2022-10-16T04:28:27;7.57;;;4.10;;
37609;SDS011;23457;51.966;8.230;2022-10-16T04:30:54;8.57;;;4.60;;
37609;SDS011;23457;51.966;8.230;2022-10-16T04:33:21;5.90;;;4.10;;
37609;SDS011;23457;51.966;8.230;2022-10-16T04:35:47;6.03;;;3.90;;
37609;SDS011;23457;51.966;8.230;2022-10-16T04:38:14;4.68;;;3.70;;
37609;SDS011;23457;51.966;8.230;2022-10-16T04:40:41;4.80;;;4.25;;
37609;SDS011;23457;51.966;8.230;2022-10-16T04:43:08;7.90;;;4.57;;
37609;SDS011;23457;51.966;8.230;2022-10-16T04:45:35;5.97;;;3.90;;
37609;SDS011;23457;51.966;8.230;2022-10-16T04:48:02;7.13;;;3.45;;
37609;SDS011;23457;51.966;8.230;2022-10-16T04:50:29;6.60;;;3.33;;
37609;SDS011;23457;51.966;8.230;2022-10-16T04:53:05;5.03;;;3.28;;
37609;SDS011;23457;51.966;8.230;2022-10-16T04:55:32;8.75;;;3.53;;
37609;SDS011;23457;51.966;8.230;2022-10-16T04:57:59;7.82;;;3.58;;
37609;SDS011;23457;51.966;8.230;2022-10-16T05:00:25;3.10;;;2.80;;
37609;SDS011;23457;51.966;8.230;2022-10-16T05:02:52;3.13;;;2.70;;
37609;SDS011;23457;51.966;8.230;2022-10-16T05:05:19;4.97;;;2.72;;
37609;SDS011;23457;51.966;8.230;2022-10-16T05:07:48;2.90;;;2.38;;
37609;SDS011;23457;51.966;8.230;2022-10-16T05:10:16;3.22;;;2.45;;
37609;SDS011;23457;51.966;8.230;2022-10-16T05:12:43;6.38;;;3.00;;
37609;SDS011;23457;51.966;8.230;2022-10-16T05:15:10;7.85;;;2.88;;
37609;SDS011;23457;51.966;8.230;2022-10-16T05:17:36;5.32;;;2.90;;
37609;SDS011;23457;51.966;8.230;2022-10-16T05:20:10;3.00;;;2.38;;
37609;SDS011;23457;51.966;8.230;2022-10-16T05:22:37;12.05;;;3.63;;
37609;SDS011;23457;51.966;8.230;2022-10-16T05:25:04;4.53;;;2.17;;
37609;SDS011;23457;51.966;8.230;2022-10-16T05:27:31;9.18;;;2.70;;
37609;SDS011;23457;51.966;8.230;2022-10-16T05:29:57;4.10;;;2.45;;
37609;SDS011;23457;51.966;8.230;2022-10-16T05:32:24;4.18;;;2.08;;
37609;SDS011;23457;51.966;8.230;2022-10-16T05:34:51;4.35;;;2.10;;
37609;SDS011;23457;51.966;8.230;2022-10-16T05:37:18;2.58;;;2.10;;
37609;SDS011;23457;51.966;8.230;2022-10-16T05:39:44;5.05;;;2.30;;
37609;SDS011;23457;51.966;8.230;2022-10-16T05:42:11;3.28;;;1.92;;
37609;SDS011;23457;51.966;8.230;2022-10-16T05:44:37;4.32;;;2.22;;
37609;SDS011;23457;51.966;8.230;2022-10-16T05:47:04;4.60;;;2.50;;
37609;SDS011;23457;51.966;8.230;2022-10-16T05:49:31;2.28;;;2.00;;
37609;SDS011;23457;51.966;8.230;2022-10-16T05:51:57;6.88;;;2.13;;
37609;SDS011;23457;51.966;8.230;2022-10-16T05:54:24;2.28;;;1.88;;
37609;SDS011;23457;51.966;8.230;2022-10-16T05:56:51;6.32;;;2.40;;
37609;SDS011;23457;51.966;8.230;2022-10-16T05:59:17;2.97;;;2.20;;
37609;SDS011;23457;51.966;8.230;2022-10-16T06:01:44;5.15;;;2.42;;
37609;SDS011;23457;51.966;8.230;2022-10-16T06:04:10;7.57;;;2.10;;
37609;SDS011;23457;51.966;8.230;2022-10-16T06:06:37;4.43;;;2.03;;
37609;SDS011;23457;51.966;8.230;2022-10-16T06:09:04;3.88;;;2.00;;
37609;SDS011;23457;51.966;8.230;2022-10-16T06:11:31;3.30;;;1.60;;
37609;SDS011;23457;51.966;8.230;2022-10-16T06:13:59;2.63;;;1.90;;
37609;SDS011;23457;51.966;8.230;2022-10-16T06:16:29;4.75;;;2.20;;
37609;SDS011;23457;51.966;8.230;2022-10-16T06:18:56;3.83;;;1.80;;
37609;SDS011;23457;51.966;8.230;2022-10-16T06:21:24;6.47;;;2.15;;
37609;SDS011;23457;51.966;8.230;2022-10-16T06:23:52;3.55;;;1.90;;
37609;SDS011;23457;51.966;8.230;2022-10-16T06:26:21;2.38;;;1.80;;
37609;SDS011;23457;51.966;8.230;2022-10-16T06:31:16;3.53;;;2.10;;
37609;SDS011;23457;51.966;8.230;2022-10-16T06:33:43;3.22;;;2.33;;
37609;SDS011;23457;51.966;8.230;2022-10-16T06:36:12;2.53;;;2.10;;
37609;SDS011;23457;51.966;8.230;2022-10-16T06:38:41;3.72;;;2.20;;
37609;SDS011;23457;51.966;8.230;2022-10-16T06:41:09;3.53;;;2.00;;
37609;SDS011;23457;51.966;8.230;2022-10-16T06:43:38;3.67;;;1.50;;
37609;SDS011;23457;51.966;8.230;2022-10-16T06:46:06;2.78;;;1.40;;
37609;SDS011;23457;51.966;8.230;2022-10-16T06:48:36;2.90;;;1.75;;
37609;SDS011;23457;51.966;8.230;2022-10-16T06:51:04;5.90;;;1.63;;
37609;SDS011;23457;51.966;8.230;2022-10-16T06:53:33;3.03;;;1.30;;
37609;SDS011;23457;51.966;8.230;2022-10-16T06:56:15;1.85;;;1.60;;
37609;SDS011;23457;51.966;8.230;2022-10-16T06:58:46;3.28;;;1.60;;
37609;SDS011;23457;51.966;8.230;2022-10-16T07:01:15;3.95;;;2.00;;
37609;SDS011;23457;51.966;8.230;2022-10-16T07:03:44;2.35;;;1.58;;
37609;SDS011;23457;51.966;8.230;2022-10-16T07:06:12;11.88;;;2.13;;
37609;SDS011;23457;51.966;8.230;2022-10-16T07:08:41;2.67;;;1.67;;
37609;SDS011;23457;51.966;8.230;2022-10-16T07:11:10;1.98;;;1.63;;
37609;SDS011;23457;51.966;8.230;2022-10-16T07:13:40;6.40;;;1.95;;
37609;SDS011;23457;51.966;8.230;2022-10-16T07:16:08;2.83;;;1.55;;
37609;SDS011;23457;51.966;8.230;2022-10-16T07:18:39;3.20;;;1.20;;
37609;SDS011;23457;51.966;8.230;2022-10-16T07:21:09;2.92;;;1.30;;
37609;SDS011;23457;51.966;8.230;2022-10-16T07:23:37;2.78;;;1.30;;
37609;SDS011;23457;51.966;8.230;2022-10-16T07:26:09;1.30;;;1.20;;
37609;SDS011;23457;51.966;8.230;2022-10-16T07:28:37;2.95;;;1.60;;
37609;SDS011;23457;51.966;8.230;2022-10-16T07:31:07;1.67;;;1.25;;
37609;SDS011;23457;51.966;8.230;2022-10-16T07:33:37;2.55;;;1.30;;
37609;SDS011;23457;51.966;8.230;2022-10-16T07:36:05;2.42;;;1.38;;
37609;SDS011;23457;51.966;8.230;2022-10-16T07:38:32;6.75;;;1.40;;
37609;SDS011;23457;51.966;8.230;2022-10-16T07:40:59;3.58;;;1.58;;
37609;SDS011;23457;51.966;8.230;2022-10-16T07:43:27;2.35;;;1.30;;
37609;SDS011;23457;51.966;8.230;2022-10-16T07:45:55;2.85;;;1.48;;
37609;SDS011;23457;51.966;8.230;2022-10-16T07:48:30;2.05;;;1.20;;
37609;SDS011;23457;51.966;8.230;2022-10-16T07:51:01;2.03;;;1.35;;
37609;SDS011;23457;51.966;8.230;2022-10-16T07:53:31;3.25;;;1.80;;
37609;SDS011;23457;51.966;8.230;2022-10-16T07:55:59;3.47;;;1.50;;
37609;SDS011;23457;51.966;8.230;2022-10-16T07:58:30;2.78;;;1.45;;
37609;SDS011;23457;51.966;8.230;2022-10-16T08:00:57;1.95;;;1.40;;
37609;SDS011;23457;51.966;8.230;2022-10-16T08:03:24;3.28;;;1.33;;
37609;SDS011;23457;51.966;8.230;2022-10-16T08:05:52;3.47;;;1.10;;
37609;SDS011;23457;51.966;8.230;2022-10-16T08:08:19;2.03;;;1.15;;
37609;SDS011;23457;51.966;8.230;2022-10-16T08:10:46;2.95;;;1.10;;
37609;SDS011;23457;51.966;8.230;2022-10-16T08:13:12;2.55;;;1.13;;
37609;SDS011;23457;51.966;8.230;2022-10-16T08:15:42;2.22;;;1.45;;
37609;SDS011;23457;51.966;8.230;2022-10-16T08:18:10;3.53;;;1.30;;
37609;SDS011;23457;51.966;8.230;2022-10-16T08:20:38;3.60;;;1.30;;
37609;SDS011;23457;51.966;8.230;2022-10-16T08:23:05;2.83;;;1.20;;
37609;SDS011;23457;51.966;8.230;2022-10-16T08:25:36;5.57;;;1.40;;
37609;SDS011;23457;51.966;8.230;2022-10-16T08:28:04;4.18;;;1.58;;
37609;SDS011;23457;51.966;8.230;2022-10-16T08:30:32;5.90;;;1.83;;
37609;SDS011;23457;51.966;8.230;2022-10-16T08:32:59;2.53;;;1.20;;
37609;SDS011;23457;51.966;8.230;2022-10-16T08:35:27;4.90;;;1.48;;
37609;SDS011;23457;51.966;8.230;2022-10-16T08:37:54;4.15;;;1.50;;
37609;SDS011;23457;51.966;8.230;2022-10-16T08:46:39;1.85;;;1.40;;
37609;SDS011;23457;51.966;8.230;2022-10-16T08:48:47;2.97;;;1.30;;
37609;SDS011;23457;51.966;8.230;2022-10-16T08:51:33;2.08;;;1.05;;
37609;SDS011;23457;51.966;8.230;2022-10-16T08:57:00;8.30;;;1.20;;
37609;SDS011;23457;51.966;8.230;2022-10-16T08:59:35;3.90;;;1.48;;
37609;SDS011;23457;51.966;8.230;2022-10-16T09:02:01;1.52;;;1.00;;
37609;SDS011;23457;51.966;8.230;2022-10-16T09:04:54;1.77;;;1.20;;
37609;SDS011;23457;51.966;8.230;2022-10-16T09:19:28;4.85;;;1.48;;
37609;SDS011;23457;51.966;8.230;2022-10-16T09:21:44;4.32;;;1.30;;
37609;SDS011;23457;51.966;8.230;2022-10-16T09:24:15;3.30;;;1.42;;
37609;SDS011;23457;51.966;8.230;2022-10-16T09:26:45;4.82;;;1.30;;
37609;SDS011;23457;51.966;8.230;2022-10-16T09:29:13;3.63;;;1.05;;
37609;SDS011;23457;51.966;8.230;2022-10-16T09:31:41;4.00;;;1.15;;
37609;SDS011;23457;51.966;8.230;2022-10-16T09:37:09;4.38;;;1.20;;
37609;SDS011;23457;51.966;8.230;2022-10-16T09:39:45;1.90;;;1.20;;
37609;SDS011;23457;51.966;8.230;2022-10-16T09:42:27;2.97;;;1.10;;
37609;SDS011;23457;51.966;8.230;2022-10-16T09:44:58;2.75;;;1.20;;
37609;SDS011;23457;51.966;8.230;2022-10-16T09:47:26;7.30;;;1.30;;
37609;SDS011;23457;51.966;8.230;2022-10-16T09:52:32;2.88;;;1.00;;
37609;SDS011;23457;51.966;8.230;2022-10-16T09:55:01;1.98;;;0.98;;
37609;SDS011;23457;51.966;8.230;2022-10-16T09:57:52;2.67;;;0.82;;
37609;SDS011;23457;51.966;8.230;2022-10-16T10:00:21;5.07;;;1.10;;
37609;SDS011;23457;51.966;8.230;2022-10-16T10:02:50;4.90;;;1.05;;
37609;SDS011;23457;51.966;8.230;2022-10-16T10:05:21;4.28;;;1.08;;
37609;SDS011;23457;51.966;8.230;2022-10-16T10:08:01;3.47;;;0.90;;
37609;SDS011;23457;51.966;8.230;2022-10-16T10:10:36;3.92;;;0.75;;
37609;SDS011;23457;51.966;8.230;2022-10-16T10:13:21;5.60;;;1.05;;
37609;SDS011;23457;51.966;8.230;2022-10-16T10:15:50;5.80;;;1.52;;
37609;SDS011;23457;51.966;8.230;2022-10-16T10:18:18;4.35;;;0.90;;
37609;SDS011;23457;51.966;8.230;2022-10-16T10:20:57;3.53;;;0.85;;
37609;SDS011;23457;51.966;8.230;2022-10-16T10:23:27;1.70;;;0.70;;
37609;SDS011;23457;51.966;8.230;2022-10-16T10:31:34;6.05;;;1.10;;
37609;SDS011;23457;51.966;8.230;2022-10-16T10:37:02;3.53;;;1.00;;
37609;SDS011;23457;51.966;8.230;2022-10-16T10:39:38;4.82;;;1.23;;
37609;SDS011;23457;51.966;8.230;2022-10-16T10:42:24;2.75;;;0.60;;
37609;SDS011;23457;51.966;8.230;2022-10-16T10:48:00;7.10;;;1.00;;
37609;SDS011;23457;51.966;8.230;2022-10-16T10:50:50;6.25;;;0.90;;
37609;SDS011;23457;51.966;8.230;2022-10-16T10:56:50;6.28;;;1.02;;
37609;SDS011;23457;51.966;8.230;2022-10-16T11:05:41;2.10;;;1.17;;
37609;SDS011;23457;51.966;8.230;2022-10-16T11:11:11;1.73;;;0.93;;
37609;SDS011;23457;51.966;8.230;2022-10-16T11:13:47;3.85;;;1.17;;
37609;SDS011;23457;51.966;8.230;2022-10-16T11:16:30;4.80;;;1.00;;
37609;SDS011;23457;51.966;8.230;2022-10-16T11:19:11;5.47;;;1.58;;
37609;SDS011;23457;51.966;8.230;2022-10-16T11:21:53;3.50;;;0.77;;
37609;SDS011;23457;51.966;8.230;2022-10-16T11:24:35;5.10;;;0.80;;
37609;SDS011;23457;51.966;8.230;2022-10-16T11:27:08;3.35;;;1.00;;
37609;SDS011;23457;51.966;8.230;2022-10-16T11:29:44;2.83;;;1.00;;
37609;SDS011;23457;51.966;8.230;2022-10-16T11:32:19;3.22;;;0.70;;
37609;SDS011;23457;51.966;8.230;2022-10-16T11:34:57;2.42;;;1.00;;
37609;SDS011;23457;51.966;8.230;2022-10-16T11:37:32;2.92;;;0.75;;
37609;SDS011;23457;51.966;8.230;2022-10-16T11:40:14;5.45;;;1.42;;
37609;SDS011;23457;51.966;8.230;2022-10-16T11:42:50;3.78;;;0.73;;
37609;SDS011;23457;51.966;8.230;2022-10-16T11:50:57;2.97;;;0.80;;
37609;SDS011;23457;51.966;8.230;2022-10-16T11:53:35;2.30;;;0.77;;
37609;SDS011;23457;51.966;8.230;2022-10-16T11:56:25;2.28;;;0.90;;
37609;SDS011;23457;51.966;8.230;2022-10-16T12:07:13;4.13;;;0.90;;
37609;SDS011;23457;51.966;8.230;2022-10-16T12:09:46;4.30;;;0.88;;
37609;SDS011;23457;51.966;8.230;2022-10-16T12:15:24;3.67;;;0.90;;
37609;SDS011;23457;51.966;8.230;2022-10-16T12:18:24;5.40;;;1.83;;
37609;SDS011;23457;51.966;8.230;2022-10-16T12:20:58;2.03;;;0.98;;
37609;SDS011;23457;51.966;8.230;2022-10-16T12:23:31;4.35;;;1.15;;
37609;SDS011;23457;51.966;8.230;2022-10-16T12:26:14;2.95;;;1.05;;
37609;SDS011;23457;51.966;8.230;2022-10-16T12:28:54;1.85;;;1.00;;
37609;SDS011;23457;51.966;8.230;2022-10-16T12:31:22;2.10;;;0.90;;
37609;SDS011;23457;51.966;8.230;2022-10-16T12:33:56;2.63;;;1.10;;
37609;SDS011;23457;51.966;8.230;2022-10-16T12:36:29;4.82;;;1.33;;
37609;SDS011;23457;51.966;8.230;2022-10-16T12:38:58;3.85;;;1.30;;
37609;SDS011;23457;51.966;8.230;2022-10-16T12:43:54;4.65;;;1.27;;
37609;SDS011;23457;51.966;8.230;2022-10-16T12:46:38;3.40;;;1.27;;
37609;SDS011;23457;51.966;8.230;2022-10-16T12:51:40;3.58;;;1.23;;
37609;SDS011;23457;51.966;8.230;2022-10-16T12:57:04;3.03;;;1.05;;
37609;SDS011;23457;51.966;8.230;2022-10-16T13:00:03;2.42;;;1.30;;
37609;SDS011;23457;51.966;8.230;2022-10-16T13:08:58;7.30;;;1.27;;
37609;SDS011;23457;51.966;8.230;2022-10-16T13:28:11;5.55;;;1.13;;
37609;SDS011;23457;51.966;8.230;2022-10-16T13:30:40;2.13;;;0.98;;
37609;SDS011;23457;51.966;8.230;2022-10-16T13:33:13;2.55;;;0.70;;
37609;SDS011;23457;51.966;8.230;2022-10-16T13:35:50;3.05;;;0.85;;
37609;SDS011;23457;51.966;8.230;2022-10-16T13:38:23;3.60;;;1.10;;
37609;SDS011;23457;51.966;8.230;2022-10-16T13:40:55;1.58;;;0.88;;
37609;SDS011;23457;51.966;8.230;2022-10-16T13:44:07;4.80;;;0.90;;
37609;SDS011;23457;51.966;8.230;2022-10-16T13:46:21;4.63;;;1.05;;
37609;SDS011;23457;51.966;8.230;2022-10-16T13:51:30;2.85;;;1.20;;
37609;SDS011;23457;51.966;8.230;2022-10-16T13:53:58;4.78;;;0.90;;
37609;SDS011;23457;51.966;8.230;2022-10-16T13:56:26;2.15;;;0.82;;
37609;SDS011;23457;51.966;8.230;2022-10-16T13:59:01;3.00;;;0.90;;
37609;SDS011;23457;51.966;8.230;2022-10-16T14:01:34;4.10;;;1.02;;
37609;SDS011;23457;51.966;8.230;2022-10-16T14:04:08;3.92;;;0.80;;
37609;SDS011;23457;51.966;8.230;2022-10-16T14:06:39;2.97;;;0.90;;
37609;SDS011;23457;51.966;8.230;2022-10-16T14:09:08;2.10;;;0.85;;
37609;SDS011;23457;51.966;8.230;2022-10-16T14:11:49;7.38;;;0.90;;
37609;SDS011;23457;51.966;8.230;2022-10-16T14:14:21;3.78;;;1.27;;
37609;SDS011;23457;51.966;8.230;2022-10-16T14:16:48;3.33;;;1.13;;
37609;SDS011;23457;51.966;8.230;2022-10-16T14:19:20;6.20;;;2.45;;
37609;SDS011;23457;51.966;8.230;2022-10-16T14:21:50;5.55;;;1.30;;
37609;SDS011;23457;51.966;8.230;2022-10-16T14:26:53;1.65;;;0.80;;
37609;SDS011;23457;51.966;8.230;2022-10-16T14:29:23;1.98;;;1.00;;
37609;SDS011;23457;51.966;8.230;2022-10-16T14:31:58;2.35;;;1.02;;
37609;SDS011;23457;51.966;8.230;2022-10-16T14:34:29;4.70;;;1.00;;
37609;SDS011;23457;51.966;8.230;2022-10-16T14:37:01;2.20;;;0.80;;
37609;SDS011;23457;51.966;8.230;2022-10-16T14:39:53;3.22;;;0.90;;
37609;SDS011;23457;51.966;8.230;2022-10-16T14:42:21;3.28;;;1.33;;
37609;SDS011;23457;51.966;8.230;2022-10-16T14:44:52;2.05;;;0.98;;
37609;SDS011;23457;51.966;8.230;2022-10-16T14:47:21;3.13;;;1.17;;
37609;SDS011;23457;51.966;8.230;2022-10-16T14:49:53;3.38;;;1.10;;
37609;SDS011;23457;51.966;8.230;2022-10-16T14:52:22;3.75;;;1.23;;
37609;SDS011;23457;51.966;8.230;2022-10-16T14:54:49;3.97;;;1.20;;
37609;SDS011;23457;51.966;8.230;2022-10-16T14:57:27;3.75;;;1.05;;
37609;SDS011;23457;51.966;8.230;2022-10-16T14:59:57;2.08;;;1.10;;
37609;SDS011;23457;51.966;8.230;2022-10-16T15:02:30;4.13;;;1.27;;
37609;SDS011;23457;51.966;8.230;2022-10-16T15:05:10;4.63;;;1.10;;
37609;SDS011;23457;51.966;8.230;2022-10-16T15:07:38;2.10;;;1.48;;
37609;SDS011;23457;51.966;8.230;2022-10-16T15:10:04;3.83;;;1.40;;
37609;SDS011;23457;51.966;8.230;2022-10-16T15:12:31;4.15;;;1.30;;
37609;SDS011;23457;51.966;8.230;2022-10-16T15:14:58;3.17;;;1.30;;
37609;SDS011;23457;51.966;8.230;2022-10-16T15:17:24;1.85;;;1.08;;
37609;SDS011;23457;51.966;8.230;2022-10-16T15:19:52;5.13;;;1.38;;
37609;SDS011;23457;51.966;8.230;2022-10-16T15:22:18;1.02;;;0.85;;
37609;SDS011;23457;51.966;8.230;2022-10-16T15:24:45;2.55;;;1.17;;
37609;SDS011;23457;51.966;8.230;2022-10-16T15:27:11;2.03;;;1.20;;
37609;SDS011;23457;51.966;8.230;2022-10-16T15:29:38;3.03;;;1.30;;
37609;SDS011;23457;51.966;8.230;2022-10-16T15:32:04;3.45;;;1.08;;
37609;SDS011;23457;51.966;8.230;2022-10-16T15:34:31;3.58;;;1.08;;
37609;SDS011;23457;51.966;8.230;2022-10-16T15:36:58;3.05;;;1.13;;
37609;SDS011;23457;51.966;8.230;2022-10-16T15:39:25;2.75;;;1.60;;
37609;SDS011;23457;51.966;8.230;2022-10-16T15:41:52;4.47;;;1.15;;
37609;SDS011;23457;51.966;8.230;2022-10-16T15:44:20;3.67;;;1.92;;
37609;SDS011;23457;51.966;8.230;2022-10-16T15:46:54;2.78;;;1.20;;
37609;SDS011;23457;51.966;8.230;2022-10-16T15:49:21;2.55;;;1.10;;
37609;SDS011;23457;51.966;8.230;2022-10-16T15:51:47;2.10;;;1.38;;
37609;SDS011;23457;51.966;8.230;2022-10-16T15:54:14;4.50;;;1.70;;
37609;SDS011;23457;51.966;8.230;2022-10-16T15:56:41;84.20;;;25.10;;
37609;SDS011;23457;51.966;8.230;2022-10-16T15:59:08;212.20;;;61.25;;
37609;SDS011;23457;51.966;8.230;2022-10-16T16:01:35;126.05;;;39.50;;
37609;SDS011;23457;51.966;8.230;2022-10-16T16:04:03;69.75;;;24.63;;
37609;SDS011;23457;51.966;8.230;2022-10-16T16:06:45;16.20;;;5.28;;
37609;SDS011;23457;51.966;8.230;2022-10-16T16:09:13;6.13;;;1.50;;
37609;SDS011;23457;51.966;8.230;2022-10-16T16:11:41;3.65;;;1.23;;
37609;SDS011;23457;51.966;8.230;2022-10-16T16:14:12;1.98;;;1.00;;
37609;SDS011;23457;51.966;8.230;2022-10-16T16:16:41;4.47;;;1.60;;
37609;SDS011;23457;51.966;8.230;2022-10-16T16:19:08;5.25;;;2.40;;
37609;SDS011;23457;51.966;8.230;2022-10-16T16:21:37;7.18;;;2.70;;
37609;SDS011;23457;51.966;8.230;2022-10-16T16:24:08;4.75;;;2.45;;
37609;SDS011;23457;51.966;8.230;2022-10-16T16:30:22;3.70;;;3.10;;
37609;SDS011;23457;51.966;8.230;2022-10-16T16:33:07;4.47;;;3.30;;
37609;SDS011;23457;51.966;8.230;2022-10-16T16:38:32;7.00;;;4.47;;
37609;SDS011;23457;51.966;8.230;2022-10-16T16:41:22;6.30;;;3.80;;
37609;SDS011;23457;51.966;8.230;2022-10-16T16:43:52;10.23;;;5.90;;
37609;SDS011;23457;51.966;8.230;2022-10-16T16:47:12;6.80;;;5.70;;
37609;SDS011;23457;51.966;8.230;2022-10-16T16:49:50;11.38;;;7.40;;
37609;SDS011;23457;51.966;8.230;2022-10-16T16:56:39;12.18;;;7.35;;
37609;SDS011;23457;51.966;8.230;2022-10-16T16:59:17;11.27;;;7.00;;
37609;SDS011;23457;51.966;8.230;2022-10-16T17:02:12;18.73;;;9.02;;
37609;SDS011;23457;51.966;8.230;2022-10-16T17:04:52;29.35;;;12.05;;
37609;SDS011;23457;51.966;8.230;2022-10-16T17:07:48;18.90;;;9.05;;
37609;SDS011;23457;51.966;8.230;2022-10-16T17:10:29;18.83;;;8.07;;
37609;SDS011;23457;51.966;8.230;2022-10-16T17:13:46;29.92;;;11.95;;
37609;SDS011;23457;51.966;8.230;2022-10-16T17:16:23;27.58;;;11.73;;
37609;SDS011;23457;51.966;8.230;2022-10-16T17:19:09;26.20;;;12.32;;
37609;SDS011;23457;51.966;8.230;2022-10-16T17:21:52;29.02;;;12.23;;
37609;SDS011;23457;51.966;8.230;2022-10-16T17:24:48;32.67;;;11.73;;
37609;SDS011;23457;51.966;8.230;2022-10-16T17:30:39;40.25;;;14.15;;
37609;SDS011;23457;51.966;8.230;2022-10-16T17:33:40;40.60;;;16.30;;